QFA181 YMHB-YMML
Flight info
| Callsign | QFA181 |
|---|---|
| Flight time | 0h 59m |
| Altitude | 30000 |
| Route | TASUM H111 LT H215 RAZZI W687 ML |
| Aircraft | B739/M-SDE2E3FGHIRWXY/LB1 |
Departure
| Time | 2026-05-01 08:25 |
|---|---|
| Airport | Hobart International Airport (YMHB) |
Arrival
| Time | 2026-05-01 09:24 |
|---|---|
| Airport | Melbourne Airport (YMML) |
| Time | Latitude | Longitude | Altitude | Speed | Heading |
|---|---|---|---|---|---|
| 2026-05-01 08:04 | -42.83711 | 147.50667 | 21 ft | 0 kts | 225° |
| 2026-05-01 08:13 | -42.83697 | 147.50685 | 21 ft | 3 kts | 225° |
| 2026-05-01 08:13 | -42.83680 | 147.50704 | 21 ft | 4 kts | 187° |
| 2026-05-01 08:13 | -42.83647 | 147.50682 | 24 ft | 1 kts | 135° |
| 2026-05-01 08:14 | -42.83647 | 147.50681 | 24 ft | 0 kts | 135° |
| 2026-05-01 08:16 | -42.83651 | 147.50687 | 21 ft | 2 kts | 135° |
| 2026-05-01 08:16 | -42.83667 | 147.50709 | 23 ft | 4 kts | 135° |
| 2026-05-01 08:16 | -42.83684 | 147.50732 | 21 ft | 3 kts | 135° |
| 2026-05-01 08:16 | -42.83700 | 147.50758 | 21 ft | 4 kts | 117° |
| 2026-05-01 08:17 | -42.83699 | 147.50792 | 21 ft | 4 kts | 73° |
| 2026-05-01 08:17 | -42.83685 | 147.50824 | 22 ft | 4 kts | 53° |
| 2026-05-01 08:17 | -42.83675 | 147.50861 | 21 ft | 5 kts | 84° |
| 2026-05-01 08:17 | -42.83689 | 147.50908 | 21 ft | 7 kts | 127° |
| 2026-05-01 08:18 | -42.83725 | 147.50958 | 21 ft | 8 kts | 135° |
| 2026-05-01 08:18 | -42.83809 | 147.51072 | 23 ft | 9 kts | 135° |
| 2026-05-01 08:19 | -42.83849 | 147.51211 | 21 ft | 9 kts | 55° |
| 2026-05-01 08:19 | -42.83823 | 147.51248 | 21 ft | 3 kts | 45° |
| 2026-05-01 08:19 | -42.83808 | 147.51269 | 21 ft | 3 kts | 44° |
| 2026-05-01 08:19 | -42.83790 | 147.51293 | 21 ft | 4 kts | 44° |
| 2026-05-01 08:20 | -42.83770 | 147.51321 | 22 ft | 4 kts | 54° |
| 2026-05-01 08:20 | -42.83763 | 147.51359 | 21 ft | 4 kts | 89° |
| 2026-05-01 08:20 | -42.83775 | 147.51394 | 21 ft | 4 kts | 129° |
| 2026-05-01 08:20 | -42.83796 | 147.51424 | 21 ft | 5 kts | 135° |
| 2026-05-01 08:21 | -42.83822 | 147.51459 | 23 ft | 6 kts | 135° |
| 2026-05-01 08:21 | -42.83857 | 147.51506 | 21 ft | 8 kts | 135° |
| 2026-05-01 08:21 | -42.83903 | 147.51569 | 22 ft | 11 kts | 135° |
| 2026-05-01 08:21 | -42.83961 | 147.51648 | 22 ft | 13 kts | 135° |
| 2026-05-01 08:22 | -42.84034 | 147.51747 | 21 ft | 17 kts | 135° |
| 2026-05-01 08:22 | -42.84122 | 147.51867 | 23 ft | 19 kts | 135° |
| 2026-05-01 08:22 | -42.84220 | 147.52000 | 21 ft | 20 kts | 135° |
| 2026-05-01 08:22 | -42.84323 | 147.52139 | 21 ft | 22 kts | 135° |
| 2026-05-01 08:23 | -42.84415 | 147.52264 | 23 ft | 12 kts | 135° |
| 2026-05-01 08:23 | -42.84488 | 147.52310 | 21 ft | 12 kts | 166° |
| 2026-05-01 08:23 | -42.84557 | 147.52360 | 21 ft | 11 kts | 133° |
| 2026-05-01 08:23 | -42.84559 | 147.52422 | 21 ft | 7 kts | 29° |
| 2026-05-01 08:24 | -42.84523 | 147.52411 | 21 ft | 4 kts | 324° |
| 2026-05-01 08:24 | -42.84466 | 147.52335 | 22 ft | 31 kts | 315° |
| 2026-05-01 08:24 | -42.84135 | 147.51884 | 21 ft | 102 kts | 316° |
| 2026-05-01 08:24 | -42.83486 | 147.51044 | 40 ft | 154 kts | 321° |
| 2026-05-01 08:25 | -42.82632 | 147.50032 | 419 ft | 172 kts | 322° |
| 2026-05-01 08:25 | -42.82015 | 147.49292 | 669 ft | 180 kts | 320° |
| 2026-05-01 08:25 | -42.80897 | 147.47697 | 1672 ft | 165 kts | 311° |
| 2026-05-01 08:25 | -42.80405 | 147.46929 | 2058 ft | 160 kts | 314° |
| 2026-05-01 08:26 | -42.79344 | 147.45480 | 2636 ft | 160 kts | 330° |
| 2026-05-01 08:26 | -42.78626 | 147.45301 | 2839 ft | 167 kts | 12° |
| 2026-05-01 08:26 | -42.77547 | 147.45995 | 3283 ft | 172 kts | 20° |
| 2026-05-01 08:26 | -42.76455 | 147.46738 | 3791 ft | 176 kts | 20° |
| 2026-05-01 08:27 | -42.75375 | 147.47487 | 4346 ft | 178 kts | 20° |
| 2026-05-01 08:27 | -42.74265 | 147.48274 | 4848 ft | 177 kts | 20° |
| 2026-05-01 08:27 | -42.72774 | 147.49336 | 5509 ft | 182 kts | 20° |
| 2026-05-01 08:27 | -42.72025 | 147.49873 | 5889 ft | 183 kts | 20° |
| 2026-05-01 08:28 | -42.70897 | 147.50683 | 6469 ft | 183 kts | 20° |
| 2026-05-01 08:28 | -42.69386 | 147.51824 | 6985 ft | 197 kts | 23° |
| 2026-05-01 08:28 | -42.68568 | 147.52500 | 7097 ft | 211 kts | 25° |
| 2026-05-01 08:28 | -42.67269 | 147.53584 | 7279 ft | 231 kts | 25° |
| 2026-05-01 08:29 | -42.65839 | 147.54783 | 7507 ft | 248 kts | 26° |
| 2026-05-01 08:29 | -42.64347 | 147.56037 | 7918 ft | 258 kts | 26° |
| 2026-05-01 08:29 | -42.62760 | 147.57358 | 8061 ft | 281 kts | 27° |
| 2026-05-01 08:29 | -42.61015 | 147.58804 | 8261 ft | 305 kts | 27° |
| 2026-05-01 08:30 | -42.59045 | 147.60036 | 8428 ft | 323 kts | 8° |
| 2026-05-01 08:30 | -42.56770 | 147.60004 | 8613 ft | 336 kts | 343° |
| 2026-05-01 08:30 | -42.54592 | 147.58663 | 8807 ft | 352 kts | 328° |
| 2026-05-01 08:30 | -42.52479 | 147.56876 | 9157 ft | 364 kts | 327° |
| 2026-05-01 08:31 | -42.50346 | 147.55041 | 9725 ft | 368 kts | 327° |
| 2026-05-01 08:31 | -42.48172 | 147.53186 | 10324 ft | 372 kts | 327° |
| 2026-05-01 08:31 | -42.45963 | 147.51326 | 10890 ft | 375 kts | 328° |
| 2026-05-01 08:31 | -42.43754 | 147.49424 | 11515 ft | 376 kts | 328° |
| 2026-05-01 08:32 | -42.41507 | 147.47565 | 12095 ft | 379 kts | 329° |
| 2026-05-01 08:32 | -42.39235 | 147.45713 | 12635 ft | 382 kts | 329° |
| 2026-05-01 08:32 | -42.36974 | 147.43854 | 13163 ft | 385 kts | 329° |
| 2026-05-01 08:32 | -42.34677 | 147.41956 | 13708 ft | 388 kts | 329° |
| 2026-05-01 08:33 | -42.32333 | 147.40118 | 14205 ft | 390 kts | 336° |
| 2026-05-01 08:33 | -42.29743 | 147.39161 | 14677 ft | 391 kts | 351° |
| 2026-05-01 08:33 | -42.27031 | 147.38627 | 15194 ft | 393 kts | 350° |
| 2026-05-01 08:33 | -42.24317 | 147.37991 | 15591 ft | 397 kts | 349° |
| 2026-05-01 08:34 | -42.21613 | 147.37326 | 16031 ft | 400 kts | 348° |
| 2026-05-01 08:34 | -42.18862 | 147.36647 | 16540 ft | 401 kts | 348° |
| 2026-05-01 08:34 | -42.16106 | 147.35975 | 17005 ft | 403 kts | 348° |
| 2026-05-01 08:34 | -42.13351 | 147.35313 | 17454 ft | 405 kts | 348° |
| 2026-05-01 08:35 | -42.10565 | 147.34646 | 17893 ft | 407 kts | 348° |
| 2026-05-01 08:35 | -42.07795 | 147.33984 | 18318 ft | 409 kts | 348° |
| 2026-05-01 08:35 | -42.04974 | 147.33310 | 18707 ft | 411 kts | 348° |
| 2026-05-01 08:35 | -42.02132 | 147.32631 | 18990 ft | 415 kts | 348° |
| 2026-05-01 08:36 | -41.99303 | 147.31955 | 19281 ft | 419 kts | 348° |
| 2026-05-01 08:36 | -41.96408 | 147.31263 | 19591 ft | 422 kts | 348° |
| 2026-05-01 08:36 | -41.93505 | 147.30571 | 19919 ft | 424 kts | 348° |
| 2026-05-01 08:36 | -41.90628 | 147.29885 | 20256 ft | 426 kts | 348° |
| 2026-05-01 08:37 | -41.87684 | 147.29184 | 20593 ft | 428 kts | 348° |
| 2026-05-01 08:37 | -41.84737 | 147.28483 | 20916 ft | 431 kts | 348° |
| 2026-05-01 08:37 | -41.81802 | 147.27785 | 21225 ft | 433 kts | 348° |
| 2026-05-01 08:37 | -41.78818 | 147.27076 | 21541 ft | 435 kts | 348° |
| 2026-05-01 08:38 | -41.75815 | 147.26363 | 21841 ft | 438 kts | 348° |
| 2026-05-01 08:38 | -41.72841 | 147.25658 | 22134 ft | 440 kts | 348° |
| 2026-05-01 08:38 | -41.69798 | 147.24937 | 22361 ft | 444 kts | 348° |
| 2026-05-01 08:38 | -41.66736 | 147.24212 | 22625 ft | 447 kts | 348° |
| 2026-05-01 08:39 | -41.63653 | 147.23484 | 22940 ft | 448 kts | 348° |
| 2026-05-01 08:39 | -41.60611 | 147.22765 | 23221 ft | 450 kts | 348° |
| 2026-05-01 08:39 | -41.57501 | 147.22031 | 23495 ft | 452 kts | 348° |
| 2026-05-01 08:39 | -41.54405 | 147.21216 | 23746 ft | 453 kts | 344° |
| 2026-05-01 08:40 | -41.48529 | 147.18244 | 24212 ft | 455 kts | 336° |
| 2026-05-01 08:40 | -41.45589 | 147.16598 | 24439 ft | 457 kts | 336° |
| 2026-05-01 08:40 | -41.42667 | 147.14971 | 24630 ft | 460 kts | 336° |
| 2026-05-01 08:41 | -41.39715 | 147.13344 | 24898 ft | 460 kts | 336° |
| 2026-05-01 08:41 | -41.36743 | 147.11721 | 25280 ft | 457 kts | 336° |
| 2026-05-01 08:41 | -41.33804 | 147.10124 | 25767 ft | 453 kts | 336° |
| 2026-05-01 08:41 | -41.30906 | 147.08556 | 26160 ft | 451 kts | 336° |
| 2026-05-01 08:42 | -41.27987 | 147.06980 | 26483 ft | 452 kts | 336° |
| 2026-05-01 08:42 | -41.25091 | 147.05419 | 26767 ft | 453 kts | 336° |
| 2026-05-01 08:42 | -41.22162 | 147.03840 | 27141 ft | 452 kts | 336° |
| 2026-05-01 08:42 | -41.19255 | 147.02275 | 27605 ft | 449 kts | 336° |
| 2026-05-01 08:43 | -41.16384 | 147.00731 | 28064 ft | 447 kts | 336° |
| 2026-05-01 08:43 | -41.13497 | 146.99180 | 28449 ft | 446 kts | 336° |
| 2026-05-01 08:43 | -41.10606 | 146.97627 | 28802 ft | 447 kts | 336° |
| 2026-05-01 08:43 | -41.07755 | 146.96097 | 29193 ft | 446 kts | 336° |
| 2026-05-01 08:44 | -41.04882 | 146.94557 | 29635 ft | 444 kts | 336° |
| 2026-05-01 08:44 | -41.02007 | 146.93017 | 30090 ft | 443 kts | 336° |
| 2026-05-01 08:44 | -40.99145 | 146.91485 | 30478 ft | 442 kts | 336° |
| 2026-05-01 08:44 | -40.96315 | 146.89973 | 30802 ft | 442 kts | 336° |
| 2026-05-01 08:45 | -40.93470 | 146.88453 | 31138 ft | 441 kts | 336° |
| 2026-05-01 08:45 | -40.90623 | 146.86935 | 31487 ft | 440 kts | 336° |
| 2026-05-01 08:45 | -40.87818 | 146.85439 | 31775 ft | 439 kts | 336° |
| 2026-05-01 08:45 | -40.84974 | 146.83924 | 32046 ft | 440 kts | 336° |
| 2026-05-01 08:46 | -40.82127 | 146.82410 | 32377 ft | 439 kts | 336° |
| 2026-05-01 08:46 | -40.79290 | 146.80902 | 32744 ft | 437 kts | 336° |
| 2026-05-01 08:46 | -40.76469 | 146.79404 | 33077 ft | 435 kts | 335° |
| 2026-05-01 08:46 | -40.73679 | 146.77924 | 33347 ft | 435 kts | 335° |
| 2026-05-01 08:47 | -40.70849 | 146.76423 | 33627 ft | 435 kts | 335° |
| 2026-05-01 08:47 | -40.68075 | 146.74953 | 33927 ft | 434 kts | 335° |
| 2026-05-01 08:47 | -40.65263 | 146.73466 | 34214 ft | 433 kts | 335° |
| 2026-05-01 08:47 | -40.62450 | 146.71978 | 34377 ft | 434 kts | 335° |
| 2026-05-01 08:48 | -40.59669 | 146.70509 | 34600 ft | 434 kts | 335° |
| 2026-05-01 08:48 | -40.56866 | 146.69031 | 34930 ft | 431 kts | 335° |
| 2026-05-01 08:48 | -40.54091 | 146.67568 | 35215 ft | 428 kts | 335° |
| 2026-05-01 08:48 | -40.51321 | 146.66109 | 35430 ft | 428 kts | 335° |
| 2026-05-01 08:49 | -40.48580 | 146.64666 | 35625 ft | 428 kts | 335° |
| 2026-05-01 08:49 | -40.45814 | 146.63211 | 35840 ft | 427 kts | 335° |
| 2026-05-01 08:49 | -40.43056 | 146.61762 | 36055 ft | 425 kts | 335° |
| 2026-05-01 08:49 | -40.40339 | 146.60336 | 36210 ft | 426 kts | 335° |
| 2026-05-01 08:50 | -40.34791 | 146.57426 | 36243 ft | 428 kts | 335° |
| 2026-05-01 08:50 | -40.29302 | 146.54554 | 36246 ft | 426 kts | 335° |
| 2026-05-01 08:51 | -40.23777 | 146.51668 | 36242 ft | 424 kts | 335° |
| 2026-05-01 08:51 | -40.18320 | 146.48822 | 36230 ft | 423 kts | 335° |
| 2026-05-01 08:52 | -40.12836 | 146.45967 | 36248 ft | 422 kts | 335° |
| 2026-05-01 08:52 | -40.07408 | 146.43145 | 36245 ft | 423 kts | 335° |
| 2026-05-01 08:53 | -40.01902 | 146.40287 | 36243 ft | 424 kts | 335° |
| 2026-05-01 08:53 | -39.96412 | 146.37449 | 36232 ft | 426 kts | 336° |
| 2026-05-01 08:54 | -39.90871 | 146.34599 | 36239 ft | 428 kts | 336° |
| 2026-05-01 08:54 | -39.85361 | 146.31768 | 36242 ft | 430 kts | 336° |
| 2026-05-01 08:55 | -39.79769 | 146.28899 | 36243 ft | 431 kts | 336° |
| 2026-05-01 08:55 | -39.74192 | 146.26041 | 36244 ft | 433 kts | 336° |
| 2026-05-01 08:56 | -39.68552 | 146.23159 | 36239 ft | 434 kts | 336° |
| 2026-05-01 08:56 | -39.62947 | 146.20311 | 36235 ft | 435 kts | 336° |
| 2026-05-01 08:57 | -39.57297 | 146.17448 | 36224 ft | 432 kts | 336° |
| 2026-05-01 08:57 | -39.51780 | 146.14654 | 36230 ft | 425 kts | 336° |
| 2026-05-01 08:58 | -39.46244 | 146.11851 | 36245 ft | 427 kts | 336° |
| 2026-05-01 08:58 | -39.40717 | 146.09060 | 36237 ft | 428 kts | 336° |
| 2026-05-01 08:59 | -39.35143 | 146.06244 | 36231 ft | 430 kts | 336° |
| 2026-05-01 08:59 | -39.29550 | 146.03416 | 35682 ft | 440 kts | 336° |
| 2026-05-01 09:00 | -39.26715 | 146.01985 | 35229 ft | 435 kts | 336° |
| 2026-05-01 09:00 | -39.23923 | 146.00578 | 34698 ft | 431 kts | 336° |
| 2026-05-01 09:00 | -39.21124 | 145.99170 | 34182 ft | 427 kts | 336° |
| 2026-05-01 09:00 | -39.18383 | 145.97791 | 33599 ft | 424 kts | 336° |
| 2026-05-01 09:01 | -39.15648 | 145.96416 | 33075 ft | 419 kts | 336° |
| 2026-05-01 09:01 | -39.12931 | 145.95050 | 32566 ft | 415 kts | 336° |
| 2026-05-01 09:01 | -39.10245 | 145.93701 | 32067 ft | 411 kts | 337° |
| 2026-05-01 09:01 | -39.07625 | 145.92386 | 31596 ft | 407 kts | 337° |
| 2026-05-01 09:02 | -39.04991 | 145.91065 | 31101 ft | 403 kts | 337° |
| 2026-05-01 09:02 | -39.02383 | 145.89759 | 30643 ft | 400 kts | 338° |
| 2026-05-01 09:02 | -38.99795 | 145.88462 | 30145 ft | 397 kts | 338° |
| 2026-05-01 09:02 | -38.97220 | 145.87175 | 29608 ft | 394 kts | 338° |
| 2026-05-01 09:03 | -38.94666 | 145.85898 | 29118 ft | 390 kts | 338° |
| 2026-05-01 09:03 | -38.92175 | 145.84654 | 28662 ft | 385 kts | 338° |
| 2026-05-01 09:03 | -38.89682 | 145.83410 | 28189 ft | 381 kts | 338° |
| 2026-05-01 09:03 | -38.87219 | 145.82182 | 27738 ft | 377 kts | 338° |
| 2026-05-01 09:04 | -38.84774 | 145.80964 | 27285 ft | 374 kts | 338° |
| 2026-05-01 09:04 | -38.82384 | 145.79774 | 26842 ft | 370 kts | 338° |
| 2026-05-01 09:04 | -38.79979 | 145.78577 | 26406 ft | 367 kts | 338° |
| 2026-05-01 09:04 | -38.77604 | 145.77396 | 25984 ft | 364 kts | 338° |
| 2026-05-01 09:05 | -38.75249 | 145.76226 | 25551 ft | 361 kts | 338° |
| 2026-05-01 09:05 | -38.72941 | 145.75080 | 25133 ft | 358 kts | 338° |
| 2026-05-01 09:05 | -38.70587 | 145.73912 | 24722 ft | 366 kts | 338° |
| 2026-05-01 09:05 | -38.68152 | 145.72704 | 24269 ft | 381 kts | 339° |
| 2026-05-01 09:06 | -38.65689 | 145.71483 | 23812 ft | 384 kts | 339° |
| 2026-05-01 09:06 | -38.63193 | 145.70248 | 23285 ft | 382 kts | 339° |
| 2026-05-01 09:06 | -38.60707 | 145.69018 | 22794 ft | 385 kts | 339° |
| 2026-05-01 09:06 | -38.58180 | 145.67768 | 22323 ft | 396 kts | 339° |
| 2026-05-01 09:07 | -38.55541 | 145.66464 | 21845 ft | 414 kts | 339° |
| 2026-05-01 09:07 | -38.52871 | 145.65147 | 21331 ft | 416 kts | 339° |
| 2026-05-01 09:07 | -38.50170 | 145.63815 | 20820 ft | 412 kts | 339° |
| 2026-05-01 09:07 | -38.47500 | 145.62493 | 20327 ft | 408 kts | 338° |
| 2026-05-01 09:08 | -38.44971 | 145.60987 | 19801 ft | 404 kts | 332° |
| 2026-05-01 09:08 | -38.42506 | 145.59279 | 19313 ft | 397 kts | 332° |
| 2026-05-01 09:08 | -38.40109 | 145.57585 | 18835 ft | 390 kts | 332° |
| 2026-05-01 09:08 | -38.37776 | 145.55938 | 18358 ft | 383 kts | 332° |
| 2026-05-01 09:09 | -38.35456 | 145.54313 | 17848 ft | 377 kts | 332° |
| 2026-05-01 09:09 | -38.33157 | 145.52716 | 17375 ft | 371 kts | 332° |
| 2026-05-01 09:09 | -38.30904 | 145.51160 | 16954 ft | 363 kts | 332° |
| 2026-05-01 09:09 | -38.28723 | 145.49659 | 16507 ft | 358 kts | 332° |
| 2026-05-01 09:10 | -38.27249 | 145.48647 | 16217 ft | 354 kts | 332° |
| 2026-05-01 09:10 | -38.25571 | 145.47495 | 15887 ft | 350 kts | 333° |
| 2026-05-01 09:10 | -38.23430 | 145.46028 | 15459 ft | 345 kts | 333° |
| 2026-05-01 09:10 | -38.22033 | 145.45071 | 15184 ft | 342 kts | 333° |
| 2026-05-01 09:11 | -38.19960 | 145.43652 | 14774 ft | 338 kts | 333° |
| 2026-05-01 09:11 | -38.17889 | 145.42235 | 14366 ft | 334 kts | 333° |
| 2026-05-01 09:11 | -38.15920 | 145.40889 | 13974 ft | 331 kts | 333° |
| 2026-05-01 09:11 | -38.13899 | 145.39508 | 13525 ft | 327 kts | 333° |
| 2026-05-01 09:12 | -38.11945 | 145.38173 | 13111 ft | 315 kts | 333° |
| 2026-05-01 09:12 | -38.10038 | 145.36871 | 12699 ft | 305 kts | 333° |
| 2026-05-01 09:12 | -38.08199 | 145.35616 | 12324 ft | 294 kts | 333° |
| 2026-05-01 09:12 | -38.06416 | 145.34400 | 11962 ft | 285 kts | 333° |
| 2026-05-01 09:13 | -38.05268 | 145.33618 | 11740 ft | 283 kts | 334° |
| 2026-05-01 09:13 | -38.03530 | 145.32436 | 11397 ft | 282 kts | 334° |
| 2026-05-01 09:13 | -38.01824 | 145.31276 | 11055 ft | 281 kts | 334° |
| 2026-05-01 09:13 | -38.00095 | 145.30080 | 10659 ft | 282 kts | 333° |
| 2026-05-01 09:14 | -37.98391 | 145.28885 | 10445 ft | 276 kts | 333° |
| 2026-05-01 09:14 | -37.96714 | 145.27707 | 10191 ft | 271 kts | 333° |
| 2026-05-01 09:14 | -37.95092 | 145.26569 | 9976 ft | 269 kts | 333° |
| 2026-05-01 09:14 | -37.93447 | 145.25419 | 9670 ft | 267 kts | 333° |
| 2026-05-01 09:15 | -37.91824 | 145.24282 | 9331 ft | 266 kts | 333° |
| 2026-05-01 09:15 | -37.90239 | 145.23174 | 9015 ft | 264 kts | 333° |
| 2026-05-01 09:15 | -37.88665 | 145.22073 | 8709 ft | 255 kts | 333° |
| 2026-05-01 09:15 | -37.87140 | 145.21008 | 8467 ft | 243 kts | 333° |
| 2026-05-01 09:16 | -37.85704 | 145.20006 | 8382 ft | 228 kts | 333° |
| 2026-05-01 09:16 | -37.84364 | 145.19072 | 8236 ft | 211 kts | 334° |
| 2026-05-01 09:16 | -37.83118 | 145.18235 | 8030 ft | 199 kts | 334° |
| 2026-05-01 09:17 | -37.80686 | 145.16619 | 7572 ft | 191 kts | 334° |
| 2026-05-01 09:17 | -37.79535 | 145.15852 | 7314 ft | 187 kts | 334° |
| 2026-05-01 09:17 | -37.77249 | 145.14331 | 6835 ft | 185 kts | 334° |
| 2026-05-01 09:18 | -37.76090 | 145.13560 | 6459 ft | 189 kts | 335° |
| 2026-05-01 09:18 | -37.73792 | 145.12031 | 5694 ft | 184 kts | 333° |
| 2026-05-01 09:19 | -37.72561 | 145.09318 | 4942 ft | 194 kts | 277° |
| 2026-05-01 09:19 | -37.72614 | 145.07584 | 4583 ft | 199 kts | 274° |
| 2026-05-01 09:19 | -37.72670 | 145.05855 | 4214 ft | 196 kts | 274° |
| 2026-05-01 09:20 | -37.72772 | 145.02602 | 3554 ft | 174 kts | 275° |
| 2026-05-01 09:20 | -37.72857 | 144.99593 | 2774 ft | 173 kts | 276° |
| 2026-05-01 09:21 | -37.72940 | 144.96600 | 2325 ft | 165 kts | 276° |
| 2026-05-01 09:21 | -37.72981 | 144.95135 | 2426 ft | 166 kts | 276° |
| 2026-05-01 09:21 | -37.73083 | 144.92182 | 2243 ft | 169 kts | 276° |
| 2026-05-01 09:22 | -37.73160 | 144.89893 | 1836 ft | 166 kts | 276° |
| 2026-05-01 09:22 | -37.73134 | 144.87059 | 1270 ft | 149 kts | 283° |
| 2026-05-01 09:23 | -37.72782 | 144.85867 | 1244 ft | 152 kts | 309° |
| 2026-05-01 09:23 | -37.71048 | 144.84488 | 1055 ft | 154 kts | 348° |
| 2026-05-01 09:24 | -37.68946 | 144.84123 | 459 ft | 157 kts | 357° |
| 2026-05-01 09:24 | -37.67919 | 144.83947 | 370 ft | 141 kts | 355° |
| 2026-05-01 09:24 | -37.66576 | 144.83742 | 400 ft | 40 kts | 8° |
| 2026-05-01 09:25 | -37.66515 | 144.84035 | 403 ft | 0 kts | 92° |
| 2026-05-01 09:26 | -37.66515 | 144.84037 | 403 ft | 1 kts | 92° |
| 2026-05-01 09:27 | -37.66517 | 144.84068 | 403 ft | 3 kts | 96° |
| 2026-05-01 09:27 | -37.66524 | 144.84098 | 403 ft | 4 kts | 112° |
| 2026-05-01 09:27 | -37.66544 | 144.84137 | 402 ft | 7 kts | 132° |
| 2026-05-01 09:28 | -37.66599 | 144.84159 | 399 ft | 10 kts | 175° |
| 2026-05-01 09:28 | -37.66681 | 144.84184 | 394 ft | 14 kts | 141° |
| 2026-05-01 09:28 | -37.66690 | 144.84301 | 392 ft | 14 kts | 81° |
| 2026-05-01 09:28 | -37.66676 | 144.84415 | 396 ft | 9 kts | 82° |
| 2026-05-01 09:29 | -37.66660 | 144.84555 | 396 ft | 8 kts | 81° |
| 2026-05-01 09:29 | -37.66652 | 144.84619 | 399 ft | 3 kts | 81° |
| 2026-05-01 09:30 | -37.66657 | 144.84648 | 399 ft | 2 kts | 139° |
| 2026-05-01 09:30 | -37.66671 | 144.84657 | 396 ft | 2 kts | 159° |
| 2026-05-01 09:30 | -37.66698 | 144.84665 | 397 ft | 2 kts | 171° |
| 2026-05-01 09:31 | -37.66712 | 144.84667 | 394 ft | 2 kts | 173° |
| 2026-05-01 09:31 | -37.66720 | 144.84669 | 398 ft | 1 kts | 172° |
| 2026-05-01 09:31 | -37.66724 | 144.84669 | 396 ft | 0 kts | 172° |